createdAt,value
2018-10-21T00:00:03.461Z,5.50
2018-10-21T00:02:32.019Z,5.50
2018-10-21T00:05:00.863Z,5.50
2018-10-21T00:07:29.427Z,5.50
2018-10-21T00:09:57.971Z,5.50
2018-10-21T00:12:26.770Z,5.50
2018-10-21T00:14:55.384Z,5.40
2018-10-21T00:17:23.993Z,5.40
2018-10-21T00:19:52.731Z,5.40
2018-10-21T00:22:21.283Z,5.40
2018-10-21T00:24:49.848Z,5.40
2018-10-21T00:27:18.667Z,5.40
2018-10-21T00:29:47.252Z,5.50
2018-10-21T00:32:15.831Z,5.50
2018-10-21T00:34:44.423Z,5.50
2018-10-21T00:37:13.007Z,5.50
2018-10-21T00:39:41.639Z,5.60
2018-10-21T00:42:10.547Z,5.60
2018-10-21T00:44:39.110Z,5.60
2018-10-21T00:47:07.671Z,5.50
2018-10-21T00:49:36.248Z,5.50
2018-10-21T00:52:05.142Z,5.40
2018-10-21T00:54:33.746Z,5.40
2018-10-21T00:57:02.376Z,5.40
2018-10-21T00:59:30.894Z,5.30
2018-10-21T01:01:59.464Z,5.30
2018-10-21T01:04:28.142Z,5.30
2018-10-21T01:06:56.740Z,5.30
2018-10-21T01:09:25.315Z,5.30
2018-10-21T01:11:53.903Z,5.40
2018-10-21T01:14:22.448Z,5.40
2018-10-21T01:16:51.022Z,5.40
2018-10-21T01:19:19.914Z,5.40
2018-10-21T01:21:48.498Z,5.50
2018-10-21T01:24:17.092Z,5.40
2018-10-21T01:26:45.674Z,5.40
2018-10-21T01:29:14.207Z,5.40
2018-10-21T01:31:42.859Z,5.40
2018-10-21T01:34:11.419Z,5.40
2018-10-21T01:36:40.026Z,5.40
2018-10-21T01:39:09.879Z,5.40
2018-10-21T01:41:38.452Z,5.40
2018-10-21T01:44:07.014Z,5.30
2018-10-21T01:46:35.603Z,5.30
2018-10-21T01:49:04.434Z,5.30
2018-10-21T01:51:32.975Z,5.20
2018-10-21T01:54:01.520Z,5.20
2018-10-21T01:56:30.111Z,5.10
2018-10-21T01:58:58.651Z,5.10
2018-10-21T02:01:27.199Z,5.10
2018-10-21T02:03:56.019Z,5.20
2018-10-21T02:06:24.602Z,5.20
2018-10-21T02:08:53.246Z,5.20
2018-10-21T02:11:21.843Z,5.20
2018-10-21T02:13:50.394Z,5.30
2018-10-21T02:16:18.931Z,5.40
2018-10-21T02:18:47.750Z,5.40
2018-10-21T02:21:16.363Z,5.50
2018-10-21T02:23:44.971Z,5.40
2018-10-21T02:26:13.814Z,5.40
2018-10-21T02:28:42.360Z,5.40
2018-10-21T02:31:10.900Z,5.40
2018-10-21T02:33:39.729Z,5.40
2018-10-21T02:36:08.203Z,5.40
2018-10-21T02:38:36.765Z,5.40
2018-10-21T02:41:28.243Z,5.40
2018-10-21T02:43:56.955Z,5.40
2018-10-21T02:46:25.781Z,5.40
2018-10-21T02:48:55.303Z,5.40
2018-10-21T02:51:23.877Z,5.40
2018-10-21T02:53:52.503Z,5.40
2018-10-21T02:56:21.386Z,5.40
2018-10-21T02:58:49.977Z,5.40
2018-10-21T03:01:18.588Z,5.30
2018-10-21T03:03:47.395Z,5.30
2018-10-21T03:06:16.015Z,5.30
2018-10-21T03:08:44.623Z,5.40
2018-10-21T03:11:13.419Z,5.40
2018-10-21T03:13:42.003Z,5.40
2018-10-21T03:16:10.578Z,5.40
2018-10-21T03:18:39.207Z,5.40
2018-10-21T03:21:07.863Z,5.30
2018-10-21T03:23:36.622Z,5.30
2018-10-21T03:26:05.307Z,5.30
2018-10-21T03:28:34.290Z,5.30
2018-10-21T03:31:02.899Z,5.30
2018-10-21T03:33:32.232Z,5.20
2018-10-21T03:36:00.952Z,5.10
2018-10-21T03:38:29.619Z,5.10
2018-10-21T03:40:58.217Z,5.00
2018-10-21T03:43:26.822Z,5.00
2018-10-21T03:45:55.451Z,5.00
2018-10-21T03:48:24.243Z,4.90
2018-10-21T03:50:52.805Z,4.90
2018-10-21T03:53:21.379Z,4.80
2018-10-21T03:55:50.294Z,4.80
2018-10-21T03:58:18.874Z,4.80
2018-10-21T04:00:47.540Z,4.70
2018-10-21T04:03:16.372Z,4.70
2018-10-21T04:05:44.958Z,4.60
2018-10-21T04:08:13.515Z,4.60
2018-10-21T04:10:42.377Z,4.60
2018-10-21T04:13:10.903Z,4.50
2018-10-21T04:15:41.347Z,4.50
2018-10-21T04:18:10.150Z,4.50
2018-10-21T04:20:38.727Z,4.40
2018-10-21T04:23:07.361Z,4.40
2018-10-21T04:25:37.028Z,4.30
2018-10-21T04:28:06.196Z,4.30
2018-10-21T04:30:36.658Z,4.20
2018-10-21T04:33:39.918Z,4.20
2018-10-21T04:36:09.543Z,4.20
2018-10-21T04:38:49.303Z,4.30
2018-10-21T04:41:17.855Z,4.30
2018-10-21T04:43:46.419Z,4.40
2018-10-21T04:46:15.165Z,4.40
2018-10-21T04:48:43.742Z,4.40
2018-10-21T04:51:12.307Z,4.50
2018-10-21T04:53:41.047Z,4.50
2018-10-21T04:56:09.615Z,4.60
2018-10-21T04:58:38.181Z,4.70
2018-10-21T05:01:06.776Z,4.70
2018-10-21T05:03:35.313Z,4.80
2018-10-21T05:06:03.859Z,4.80
2018-10-21T05:08:32.660Z,4.90
2018-10-21T05:11:01.308Z,4.90
2018-10-21T05:13:29.867Z,4.90
2018-10-21T05:15:58.700Z,5.00
2018-10-21T05:18:27.227Z,5.00
2018-10-21T05:20:55.766Z,5.10
2018-10-21T05:23:24.620Z,5.10
2018-10-21T05:25:53.185Z,5.10
2018-10-21T05:28:21.739Z,5.10
2018-10-21T05:30:50.547Z,5.10
2018-10-21T05:33:19.123Z,5.20
2018-10-21T05:35:47.716Z,5.20
2018-10-21T05:38:16.508Z,5.20
2018-10-21T05:40:45.143Z,5.30
2018-10-21T05:43:13.647Z,5.30
2018-10-21T05:45:42.555Z,5.30
2018-10-21T05:48:11.127Z,5.40
2018-10-21T05:50:40.541Z,5.40
2018-10-21T05:53:09.468Z,5.50
2018-10-21T05:55:38.025Z,5.60
2018-10-21T05:58:06.595Z,5.60
2018-10-21T06:00:35.423Z,5.70
2018-10-21T06:03:04.068Z,5.70
2018-10-21T06:05:41.612Z,5.70
2018-10-21T06:08:10.454Z,5.80
2018-10-21T06:10:39.029Z,5.70
2018-10-21T06:13:07.912Z,5.80
2018-10-21T06:15:36.538Z,5.80
2018-10-21T06:18:07.471Z,5.90
2018-10-21T06:20:39.295Z,5.90
2018-10-21T06:23:07.870Z,6.00
2018-10-21T06:25:36.419Z,6.00
2018-10-21T06:28:05.330Z,6.00
2018-10-21T06:30:33.883Z,6.00
2018-10-21T06:33:02.443Z,6.10
2018-10-21T06:35:31.285Z,6.10
2018-10-21T06:37:59.847Z,6.10
2018-10-21T06:40:28.390Z,6.10
2018-10-21T06:42:57.234Z,6.20
2018-10-21T06:45:25.954Z,6.30
2018-10-21T06:47:54.477Z,6.30
2018-10-21T06:50:23.435Z,6.30
2018-10-21T06:52:51.985Z,6.30
2018-10-21T06:55:20.577Z,6.30
2018-10-21T06:57:49.363Z,6.40
2018-10-21T07:00:17.907Z,6.40
2018-10-21T07:02:46.450Z,6.50
2018-10-21T07:05:26.070Z,6.50
2018-10-21T07:07:54.674Z,6.50
2018-10-21T07:10:23.309Z,6.50
2018-10-21T07:12:52.411Z,6.50
2018-10-21T07:15:21.174Z,6.50
2018-10-21T07:17:49.697Z,6.50
2018-10-21T07:20:18.264Z,6.50
2018-10-21T07:22:46.842Z,6.60
2018-10-21T07:25:15.386Z,6.50
2018-10-21T07:27:43.947Z,6.50
2018-10-21T07:30:13.371Z,6.60
2018-10-21T07:32:42.739Z,6.60
2018-10-21T07:35:13.602Z,6.50
2018-10-21T07:37:42.991Z,6.60
2018-10-21T07:40:12.594Z,6.60
2018-10-21T07:42:41.435Z,6.70
2018-10-21T07:45:10.015Z,6.70
2018-10-21T07:47:38.611Z,6.70
2018-10-21T07:50:07.203Z,6.70
2018-10-21T07:52:35.784Z,6.70
2018-10-21T07:55:04.465Z,6.80
2018-10-21T07:57:33.026Z,6.80
2018-10-21T08:00:01.604Z,6.80
2018-10-21T08:02:30.188Z,6.90
2018-10-21T08:04:58.750Z,6.90
2018-10-21T08:07:38.311Z,6.90
2018-10-21T08:10:06.967Z,7.00
2018-10-21T08:12:35.482Z,7.20
2018-10-21T08:15:04.106Z,7.40
2018-10-21T08:17:32.907Z,7.60
2018-10-21T08:20:01.658Z,7.70
2018-10-21T08:22:30.254Z,7.80
2018-10-21T08:24:59.095Z,7.90
2018-10-21T08:27:27.680Z,8.00
2018-10-21T08:29:56.283Z,8.10
2018-10-21T08:32:24.887Z,8.20
2018-10-21T08:34:53.471Z,8.30
2018-10-21T08:37:22.043Z,8.50
2018-10-21T08:39:50.690Z,8.60
2018-10-21T08:42:19.263Z,8.70
2018-10-21T08:44:47.831Z,8.70
2018-10-21T08:47:16.443Z,8.70
2018-10-21T08:49:45.075Z,8.70
2018-10-21T08:52:13.625Z,8.60
2018-10-21T08:54:42.240Z,8.60
2018-10-21T08:57:10.795Z,8.80
2018-10-21T08:59:39.439Z,8.90
2018-10-21T09:02:08.303Z,8.90
2018-10-21T09:04:36.891Z,8.90
2018-10-21T09:07:05.579Z,8.80
2018-10-21T09:09:34.159Z,8.80
2018-10-21T09:12:02.779Z,8.80
2018-10-21T09:14:31.386Z,8.80
2018-10-21T09:17:00.184Z,8.80
2018-10-21T09:19:28.803Z,8.90
2018-10-21T09:21:57.435Z,9.00
2018-10-21T09:24:26.116Z,9.10
2018-10-21T09:26:54.687Z,9.10
2018-10-21T09:29:23.247Z,9.10
2018-10-21T09:31:52.041Z,9.10
2018-10-21T09:34:20.708Z,9.10
2018-10-21T09:36:49.222Z,9.10
2018-10-21T09:39:17.851Z,9.10
2018-10-21T09:41:46.412Z,9.10
2018-10-21T09:44:14.995Z,9.10
2018-10-21T09:46:43.832Z,9.00
2018-10-21T09:49:12.969Z,9.10
2018-10-21T09:51:41.659Z,9.20
2018-10-21T09:54:10.495Z,9.20
2018-10-21T09:56:39.091Z,9.20
2018-10-21T09:59:08.492Z,9.30
2018-10-21T10:01:43.125Z,9.30
2018-10-21T10:04:11.749Z,9.50
2018-10-21T10:06:40.290Z,9.50
2018-10-21T10:09:11.429Z,9.40
2018-10-21T10:11:40.079Z,9.40
2018-10-21T10:14:08.687Z,9.40
2018-10-21T10:16:37.440Z,9.50
2018-10-21T10:19:06.132Z,9.60
2018-10-21T10:21:35.052Z,9.70
2018-10-21T10:24:03.788Z,9.70
2018-10-21T10:26:32.371Z,9.90
2018-10-21T10:29:00.985Z,10.00
2018-10-21T10:31:29.940Z,10.10
2018-10-21T10:33:58.670Z,10.20
2018-10-21T10:36:27.215Z,10.20
2018-10-21T10:38:56.001Z,10.20
2018-10-21T10:41:24.543Z,10.20
2018-10-21T10:43:53.123Z,10.20
2018-10-21T10:47:51.071Z,10.40
2018-10-21T10:50:19.660Z,10.50
2018-10-21T10:52:48.233Z,10.50
2018-10-21T10:55:17.133Z,10.60
2018-10-21T10:57:45.720Z,10.60
2018-10-21T11:00:14.317Z,10.70
2018-10-21T11:02:42.907Z,10.80
2018-10-21T11:05:11.551Z,10.80
2018-10-21T11:07:40.099Z,11.00
2018-10-21T11:10:09.755Z,11.10
2018-10-21T11:12:38.287Z,11.20
2018-10-21T11:15:07.720Z,11.20
2018-10-21T11:17:36.519Z,11.30
2018-10-21T11:20:05.587Z,11.30
2018-10-21T11:22:34.259Z,11.40
2018-10-21T11:25:02.851Z,11.40
2018-10-21T11:27:31.391Z,11.40
2018-10-21T11:29:59.967Z,11.30
2018-10-21T11:32:28.779Z,11.30
2018-10-21T11:34:57.361Z,11.20
2018-10-21T11:37:26.113Z,11.20
2018-10-21T11:39:54.689Z,11.20
2018-10-21T11:42:23.224Z,11.20
2018-10-21T11:44:51.791Z,11.20
2018-10-21T11:47:20.651Z,11.20
2018-10-21T11:49:49.263Z,11.20
2018-10-21T11:52:17.949Z,11.10
2018-10-21T11:54:46.799Z,11.10
2018-10-21T11:57:15.559Z,11.00
2018-10-21T11:59:44.182Z,11.00
2018-10-21T12:02:13.101Z,11.00
2018-10-21T12:04:41.679Z,11.00
2018-10-21T12:07:10.279Z,11.00
2018-10-21T12:09:38.873Z,11.00
2018-10-21T12:12:07.481Z,11.00
2018-10-21T12:14:36.066Z,11.10
2018-10-21T12:17:04.979Z,11.10
2018-10-21T12:19:33.548Z,11.10
2018-10-21T12:22:02.218Z,11.20
2018-10-21T12:24:31.099Z,11.20
2018-10-21T12:26:59.666Z,11.20
2018-10-21T12:29:28.237Z,11.20
2018-10-21T12:31:56.859Z,11.20
2018-10-21T12:34:25.443Z,11.20
2018-10-21T12:36:54.061Z,11.20
2018-10-21T12:39:22.672Z,11.20
2018-10-21T12:41:51.218Z,11.20
2018-10-21T12:44:19.772Z,11.20
2018-10-21T12:46:48.632Z,11.20
2018-10-21T12:49:17.386Z,11.20
2018-10-21T12:51:45.897Z,11.20
2018-10-21T12:54:14.778Z,11.20
2018-10-21T12:56:43.307Z,11.20
2018-10-21T12:59:11.869Z,11.20
2018-10-21T13:01:40.490Z,11.20
2018-10-21T13:04:09.177Z,11.20
2018-10-21T13:06:37.707Z,11.10
2018-10-21T13:09:07.740Z,11.10
2018-10-21T13:11:36.308Z,11.10
2018-10-21T13:14:05.096Z,11.10
2018-10-21T13:16:34.016Z,11.10
2018-10-21T13:19:02.638Z,11.10
2018-10-21T13:21:31.140Z,11.10
2018-10-21T13:23:59.815Z,11.20
2018-10-21T13:26:28.411Z,11.10
2018-10-21T13:28:57.099Z,11.20
2018-10-21T13:31:25.879Z,11.20
2018-10-21T13:33:54.479Z,11.20
2018-10-21T13:36:23.034Z,11.20
2018-10-21T13:38:51.865Z,11.20
2018-10-21T13:41:20.668Z,11.30
2018-10-21T13:43:49.243Z,11.30
2018-10-21T13:46:18.119Z,11.30
2018-10-21T13:48:46.719Z,11.40
2018-10-21T13:51:15.372Z,11.40
2018-10-21T13:53:44.195Z,11.40
2018-10-21T13:56:12.751Z,11.40
2018-10-21T13:58:41.331Z,11.50
2018-10-21T14:01:10.294Z,11.50
2018-10-21T14:03:38.753Z,11.50
2018-10-21T14:06:07.344Z,11.40
2018-10-21T14:08:35.921Z,11.40
2018-10-21T14:11:04.528Z,11.40
2018-10-21T14:13:33.113Z,11.40
2018-10-21T14:16:02.024Z,11.30
2018-10-21T14:18:30.670Z,11.30
2018-10-21T14:20:59.568Z,11.30
2018-10-21T14:23:28.147Z,11.30
2018-10-21T14:25:56.704Z,11.30
2018-10-21T14:28:25.330Z,11.30
2018-10-21T14:30:54.222Z,11.40
2018-10-21T14:33:22.890Z,11.40
2018-10-21T14:35:51.499Z,11.40
2018-10-21T14:38:20.104Z,11.40
2018-10-21T14:40:48.923Z,11.40
2018-10-21T14:43:17.519Z,11.50
2018-10-21T14:45:46.436Z,11.50
2018-10-21T14:48:14.970Z,11.50
2018-10-21T14:50:43.487Z,11.50
2018-10-21T14:53:12.355Z,11.50
2018-10-21T14:55:40.935Z,11.50
2018-10-21T14:58:09.480Z,11.50
2018-10-21T15:00:38.420Z,11.40
2018-10-21T15:03:07.217Z,11.30
2018-10-21T15:05:36.635Z,11.30
2018-10-21T15:08:05.369Z,11.30
2018-10-21T15:10:33.956Z,11.30
2018-10-21T15:13:02.534Z,11.30
2018-10-21T15:15:31.141Z,11.30
2018-10-21T15:17:59.782Z,11.30
2018-10-21T15:20:28.336Z,11.20
2018-10-21T15:23:03.101Z,11.20
2018-10-21T15:25:31.846Z,11.20
2018-10-21T15:28:00.533Z,11.20
2018-10-21T15:30:29.417Z,11.10
2018-10-21T15:32:57.950Z,11.10
2018-10-21T15:35:26.515Z,11.10
2018-10-21T15:37:55.343Z,11.10
2018-10-21T15:40:23.940Z,11.10
2018-10-21T15:42:52.511Z,11.10
2018-10-21T15:45:21.099Z,11.10
2018-10-21T15:47:49.671Z,11.10
2018-10-21T15:50:18.367Z,11.20
2018-10-21T15:52:46.912Z,11.20
2018-10-21T15:55:15.754Z,11.20
2018-10-21T15:57:44.379Z,11.20
2018-10-21T16:00:13.734Z,11.10
2018-10-21T16:02:42.898Z,11.20
2018-10-21T16:05:12.051Z,11.20
2018-10-21T16:07:42.355Z,11.20
2018-10-21T16:10:11.152Z,11.20
2018-10-21T16:12:39.876Z,11.20
2018-10-21T16:15:13.043Z,11.30
2018-10-21T16:17:41.675Z,11.30
2018-10-21T16:20:10.311Z,11.30
2018-10-21T16:22:40.472Z,11.30
2018-10-21T16:25:11.196Z,11.40
2018-10-21T16:27:40.234Z,11.40
2018-10-21T16:30:10.940Z,11.40
2018-10-21T16:32:39.866Z,11.40
2018-10-21T16:35:09.092Z,11.40
2018-10-21T16:37:37.923Z,11.40
2018-10-21T16:40:08.051Z,11.40
2018-10-21T16:42:36.766Z,11.40
2018-10-21T16:45:06.166Z,11.40
2018-10-21T16:47:35.051Z,11.50
2018-10-21T16:50:03.708Z,11.50
2018-10-21T16:52:32.320Z,11.50
2018-10-21T16:55:01.040Z,11.40
2018-10-21T16:57:29.621Z,11.40
2018-10-21T16:59:58.375Z,11.40
2018-10-21T17:02:26.908Z,11.40
2018-10-21T17:04:55.590Z,11.50
2018-10-21T17:07:24.207Z,11.50
2018-10-21T17:09:53.156Z,11.50
2018-10-21T17:12:21.587Z,11.50
2018-10-21T17:14:50.207Z,11.50
2018-10-21T17:17:18.895Z,11.50
2018-10-21T17:19:47.441Z,11.50
2018-10-21T17:22:16.045Z,11.50
2018-10-21T17:24:44.594Z,11.50
2018-10-21T17:27:13.164Z,11.60
2018-10-21T17:29:41.963Z,11.50
2018-10-21T17:32:10.687Z,11.50
2018-10-21T17:34:39.231Z,11.50
2018-10-21T17:37:08.054Z,11.50
2018-10-21T17:39:36.757Z,11.50
2018-10-21T17:42:05.555Z,11.50
2018-10-21T17:44:34.169Z,11.50
2018-10-21T17:47:02.745Z,11.50
2018-10-21T17:49:31.300Z,11.50
2018-10-21T17:51:59.975Z,11.50
2018-10-21T17:54:29.631Z,11.50
2018-10-21T17:56:59.410Z,11.50
2018-10-21T17:59:28.770Z,11.60
2018-10-21T18:01:58.044Z,11.70
2018-10-21T18:04:27.305Z,11.70
2018-10-21T18:06:56.163Z,11.70
2018-10-21T18:09:24.771Z,11.70
2018-10-21T18:11:53.335Z,11.80
2018-10-21T18:14:22.188Z,11.80
2018-10-21T18:16:50.739Z,11.80
2018-10-21T18:19:19.300Z,11.80
2018-10-21T18:21:48.217Z,11.80
2018-10-21T18:24:16.722Z,11.90
2018-10-21T18:26:45.258Z,11.90
2018-10-21T18:29:14.055Z,11.90
2018-10-21T18:31:42.642Z,11.90
2018-10-21T18:34:11.345Z,11.90
2018-10-21T18:36:40.099Z,11.90
2018-10-21T18:39:09.952Z,11.90
2018-10-21T18:41:38.495Z,11.90
2018-10-21T18:44:07.406Z,11.90
2018-10-21T18:46:36.047Z,11.90
2018-10-21T18:49:04.786Z,11.90
2018-10-21T18:51:33.371Z,11.90
2018-10-21T18:54:01.934Z,12.00
2018-10-21T18:56:32.523Z,12.00
2018-10-21T18:59:01.388Z,12.00
2018-10-21T19:01:30.487Z,12.00
2018-10-21T19:03:59.733Z,12.00
2018-10-21T19:06:29.349Z,12.10
2018-10-21T19:08:59.054Z,12.10
2018-10-21T19:11:27.778Z,12.20
2018-10-21T19:13:56.479Z,12.20
2018-10-21T19:16:25.040Z,12.30
2018-10-21T19:18:54.798Z,12.30
2018-10-21T19:21:23.582Z,12.40
2018-10-21T19:23:52.216Z,12.50
2018-10-21T19:26:20.818Z,12.60
2018-10-21T19:28:49.409Z,12.60
2018-10-21T19:31:18.013Z,12.70
2018-10-21T19:33:46.615Z,12.80
2018-10-21T19:36:15.189Z,12.80
2018-10-21T19:38:43.756Z,12.80
2018-10-21T19:41:14.854Z,12.90
2018-10-21T19:43:44.442Z,12.90
2018-10-21T19:46:13.108Z,12.90
2018-10-21T19:48:41.688Z,12.90
2018-10-21T19:51:10.267Z,13.00
2018-10-21T19:53:38.896Z,13.00
2018-10-21T19:56:07.499Z,13.10
2018-10-21T19:58:36.367Z,13.10
2018-10-21T20:01:05.174Z,13.20
2018-10-21T20:03:33.925Z,13.10
2018-10-21T20:06:03.723Z,13.10
2018-10-21T20:08:32.288Z,13.10
2018-10-21T20:11:00.900Z,13.10
2018-10-21T20:13:29.789Z,13.20
2018-10-21T20:15:58.475Z,13.20
2018-10-21T20:18:26.959Z,13.20
2018-10-21T20:20:55.763Z,13.20
2018-10-21T20:23:24.329Z,13.30
2018-10-21T20:25:53.359Z,13.20
2018-10-21T20:28:22.340Z,13.30
2018-10-21T20:30:50.974Z,13.30
2018-10-21T20:33:19.521Z,13.30
2018-10-21T20:35:48.148Z,13.30
2018-10-21T20:38:16.771Z,13.30
2018-10-21T20:40:45.340Z,13.30
2018-10-21T20:43:13.928Z,13.40
2018-10-21T20:45:42.486Z,13.40
2018-10-21T20:48:12.148Z,13.40
2018-10-21T20:50:40.963Z,13.40
2018-10-21T20:53:09.519Z,13.40
2018-10-21T20:55:38.150Z,13.40
2018-10-21T20:58:06.823Z,13.40
2018-10-21T21:00:35.387Z,13.40
2018-10-21T21:03:04.053Z,13.40
2018-10-21T21:05:32.874Z,13.40
2018-10-21T21:08:01.477Z,13.50
2018-10-21T21:10:30.231Z,13.50
2018-10-21T21:12:59.035Z,13.40
2018-10-21T21:15:27.619Z,13.40
2018-10-21T21:17:56.187Z,13.40
2018-10-21T21:20:24.764Z,13.50
2018-10-21T21:22:53.374Z,13.50
2018-10-21T21:25:21.922Z,13.50
2018-10-21T21:27:50.776Z,13.50
2018-10-21T21:30:19.434Z,13.50
2018-10-21T21:32:48.762Z,13.50
2018-10-21T21:35:17.400Z,13.50
2018-10-21T21:37:45.982Z,13.50
2018-10-21T21:40:14.646Z,13.50
2018-10-21T21:42:43.203Z,13.50
2018-10-21T21:45:11.745Z,13.50
2018-10-21T21:47:40.407Z,13.50
2018-10-21T21:51:39.008Z,13.50
2018-10-21T21:54:08.995Z,13.60
2018-10-21T21:56:37.570Z,13.70
2018-10-21T21:59:06.711Z,13.70
2018-10-21T22:01:35.276Z,13.70
2018-10-21T22:04:03.971Z,13.70
2018-10-21T22:06:32.747Z,13.70
2018-10-21T22:09:01.331Z,13.70
2018-10-21T22:11:29.888Z,13.70
2018-10-21T22:13:58.537Z,13.70
2018-10-21T22:16:27.419Z,13.80
2018-10-21T22:18:56.008Z,13.80
2018-10-21T22:21:24.836Z,13.80
2018-10-21T22:23:53.419Z,13.90
2018-10-21T22:26:22.049Z,13.90
2018-10-21T22:28:50.914Z,13.90
2018-10-21T22:31:19.491Z,13.90
2018-10-21T22:33:48.052Z,13.90
2018-10-21T22:36:17.001Z,13.90
2018-10-21T22:38:45.747Z,13.90
2018-10-21T22:41:14.338Z,13.90
2018-10-21T22:43:42.960Z,13.90
2018-10-21T22:46:11.655Z,13.90
2018-10-21T22:48:40.127Z,13.90
2018-10-21T22:51:08.927Z,13.90
2018-10-21T22:53:37.499Z,13.90
2018-10-21T22:56:06.134Z,14.00
2018-10-21T22:58:34.763Z,14.00
2018-10-21T23:01:03.530Z,14.00
2018-10-21T23:03:32.095Z,13.90
2018-10-21T23:06:00.997Z,14.00
2018-10-21T23:08:29.599Z,14.00
2018-10-21T23:10:58.151Z,14.00
2018-10-21T23:13:26.949Z,14.00
2018-10-21T23:15:55.583Z,14.00
2018-10-21T23:18:24.170Z,14.00
2018-10-21T23:20:53.128Z,14.00
2018-10-21T23:23:22.967Z,14.00
2018-10-21T23:25:51.523Z,14.00
2018-10-21T23:28:20.165Z,14.00
2018-10-21T23:30:48.774Z,14.00
2018-10-21T23:33:17.314Z,14.10
2018-10-21T23:35:45.882Z,14.10
2018-10-21T23:38:14.519Z,14.10
2018-10-21T23:40:43.065Z,14.10
2018-10-21T23:43:11.919Z,14.10
2018-10-21T23:45:40.535Z,14.10
2018-10-21T23:48:09.109Z,14.20
2018-10-21T23:50:37.705Z,14.10
2018-10-21T23:53:06.386Z,14.20
2018-10-21T23:55:34.998Z,14.20
2018-10-21T23:58:03.620Z,14.20
